sensor_id;sensor_type;location;lat;lon;timestamp;P1;durP1;ratioP1;P2;durP2;ratioP2
12658;SDS011;6394;52.488;13.386;2022-11-21T00:01:17;19.07;;;12.87;;
12658;SDS011;6394;52.488;13.386;2022-11-21T00:03:44;19.37;;;12.90;;
12658;SDS011;6394;52.488;13.386;2022-11-21T00:06:12;21.67;;;12.67;;
12658;SDS011;6394;52.488;13.386;2022-11-21T00:08:39;21.13;;;13.73;;
12658;SDS011;6394;52.488;13.386;2022-11-21T00:11:06;18.93;;;13.23;;
12658;SDS011;6394;52.488;13.386;2022-11-21T00:13:33;19.40;;;12.80;;
12658;SDS011;6394;52.488;13.386;2022-11-21T00:16:05;19.27;;;13.17;;
12658;SDS011;6394;52.488;13.386;2022-11-21T00:18:33;18.13;;;12.67;;
12658;SDS011;6394;52.488;13.386;2022-11-21T00:21:04;17.67;;;11.73;;
12658;SDS011;6394;52.488;13.386;2022-11-21T00:23:31;17.60;;;12.73;;
12658;SDS011;6394;52.488;13.386;2022-11-21T00:26:02;19.60;;;13.00;;
12658;SDS011;6394;52.488;13.386;2022-11-21T00:28:29;19.37;;;12.93;;
12658;SDS011;6394;52.488;13.386;2022-11-21T00:30:57;18.10;;;12.53;;
12658;SDS011;6394;52.488;13.386;2022-11-21T00:33:25;20.00;;;13.53;;
12658;SDS011;6394;52.488;13.386;2022-11-21T00:35:52;19.60;;;12.57;;
12658;SDS011;6394;52.488;13.386;2022-11-21T00:38:20;19.20;;;12.17;;
12658;SDS011;6394;52.488;13.386;2022-11-21T00:40:48;19.97;;;13.60;;
12658;SDS011;6394;52.488;13.386;2022-11-21T00:43:15;20.57;;;13.13;;
12658;SDS011;6394;52.488;13.386;2022-11-21T00:45:42;18.03;;;12.93;;
12658;SDS011;6394;52.488;13.386;2022-11-21T00:48:10;20.10;;;12.97;;
12658;SDS011;6394;52.488;13.386;2022-11-21T00:50:38;20.23;;;13.33;;
12658;SDS011;6394;52.488;13.386;2022-11-21T00:53:05;17.93;;;12.70;;
12658;SDS011;6394;52.488;13.386;2022-11-21T00:55:33;18.47;;;13.00;;
12658;SDS011;6394;52.488;13.386;2022-11-21T00:58:01;19.73;;;13.40;;
12658;SDS011;6394;52.488;13.386;2022-11-21T01:00:28;20.43;;;13.43;;
12658;SDS011;6394;52.488;13.386;2022-11-21T01:02:55;21.53;;;13.07;;
12658;SDS011;6394;52.488;13.386;2022-11-21T01:05:22;18.87;;;12.73;;
12658;SDS011;6394;52.488;13.386;2022-11-21T01:07:51;18.97;;;13.43;;
12658;SDS011;6394;52.488;13.386;2022-11-21T01:10:18;17.47;;;13.10;;
12658;SDS011;6394;52.488;13.386;2022-11-21T01:12:45;17.93;;;12.70;;
12658;SDS011;6394;52.488;13.386;2022-11-21T01:15:13;20.07;;;12.77;;
12658;SDS011;6394;52.488;13.386;2022-11-21T01:17:41;22.50;;;14.23;;
12658;SDS011;6394;52.488;13.386;2022-11-21T01:20:09;19.20;;;12.90;;
12658;SDS011;6394;52.488;13.386;2022-11-21T01:22:37;20.10;;;13.60;;
12658;SDS011;6394;52.488;13.386;2022-11-21T01:25:06;18.00;;;12.60;;
12658;SDS011;6394;52.488;13.386;2022-11-21T01:27:34;20.23;;;13.20;;
12658;SDS011;6394;52.488;13.386;2022-11-21T01:30:01;19.37;;;13.00;;
12658;SDS011;6394;52.488;13.386;2022-11-21T01:32:28;19.10;;;13.50;;
12658;SDS011;6394;52.488;13.386;2022-11-21T01:34:55;20.43;;;13.03;;
12658;SDS011;6394;52.488;13.386;2022-11-21T01:37:23;19.90;;;13.07;;
12658;SDS011;6394;52.488;13.386;2022-11-21T01:39:51;17.90;;;12.67;;
12658;SDS011;6394;52.488;13.386;2022-11-21T01:42:20;38.70;;;22.40;;
12658;SDS011;6394;52.488;13.386;2022-11-21T01:44:49;38.80;;;21.63;;
12658;SDS011;6394;52.488;13.386;2022-11-21T01:47:17;22.60;;;14.60;;
12658;SDS011;6394;52.488;13.386;2022-11-21T01:49:46;20.10;;;13.60;;
12658;SDS011;6394;52.488;13.386;2022-11-21T01:52:15;19.43;;;13.00;;
12658;SDS011;6394;52.488;13.386;2022-11-21T01:54:43;21.33;;;14.13;;
12658;SDS011;6394;52.488;13.386;2022-11-21T01:57:12;19.77;;;13.43;;
12658;SDS011;6394;52.488;13.386;2022-11-21T01:59:42;23.20;;;14.27;;
12658;SDS011;6394;52.488;13.386;2022-11-21T02:02:11;21.73;;;13.63;;
12658;SDS011;6394;52.488;13.386;2022-11-21T02:04:40;21.23;;;14.13;;
12658;SDS011;6394;52.488;13.386;2022-11-21T02:07:08;21.73;;;13.23;;
12658;SDS011;6394;52.488;13.386;2022-11-21T02:09:37;18.77;;;12.77;;
12658;SDS011;6394;52.488;13.386;2022-11-21T02:12:06;20.77;;;13.10;;
12658;SDS011;6394;52.488;13.386;2022-11-21T02:14:34;20.90;;;12.87;;
12658;SDS011;6394;52.488;13.386;2022-11-21T02:17:05;19.37;;;12.90;;
12658;SDS011;6394;52.488;13.386;2022-11-21T02:19:34;19.90;;;12.47;;
12658;SDS011;6394;52.488;13.386;2022-11-21T02:22:06;19.90;;;13.30;;
12658;SDS011;6394;52.488;13.386;2022-11-21T02:24:37;19.87;;;13.10;;
12658;SDS011;6394;52.488;13.386;2022-11-21T02:27:07;19.07;;;12.87;;
12658;SDS011;6394;52.488;13.386;2022-11-21T02:29:35;20.00;;;12.67;;
12658;SDS011;6394;52.488;13.386;2022-11-21T02:32:03;20.83;;;13.47;;
12658;SDS011;6394;52.488;13.386;2022-11-21T02:34:30;17.83;;;12.63;;
12658;SDS011;6394;52.488;13.386;2022-11-21T02:36:58;18.70;;;12.93;;
12658;SDS011;6394;52.488;13.386;2022-11-21T02:39:26;21.80;;;13.83;;
12658;SDS011;6394;52.488;13.386;2022-11-21T02:41:56;18.77;;;13.40;;
12658;SDS011;6394;52.488;13.386;2022-11-21T02:44:28;18.60;;;12.77;;
12658;SDS011;6394;52.488;13.386;2022-11-21T02:46:57;20.47;;;13.60;;
12658;SDS011;6394;52.488;13.386;2022-11-21T02:49:28;18.43;;;12.80;;
12658;SDS011;6394;52.488;13.386;2022-11-21T02:51:56;19.57;;;13.10;;
12658;SDS011;6394;52.488;13.386;2022-11-21T02:54:23;22.07;;;13.57;;
12658;SDS011;6394;52.488;13.386;2022-11-21T02:56:50;21.60;;;14.27;;
12658;SDS011;6394;52.488;13.386;2022-11-21T02:59:17;20.93;;;14.50;;
12658;SDS011;6394;52.488;13.386;2022-11-21T03:01:46;27.33;;;14.57;;
12658;SDS011;6394;52.488;13.386;2022-11-21T03:04:13;22.17;;;14.40;;
12658;SDS011;6394;52.488;13.386;2022-11-21T03:06:41;21.00;;;13.37;;
12658;SDS011;6394;52.488;13.386;2022-11-21T03:09:08;20.07;;;13.57;;
12658;SDS011;6394;52.488;13.386;2022-11-21T03:11:36;19.40;;;13.77;;
12658;SDS011;6394;52.488;13.386;2022-11-21T03:14:03;21.37;;;13.67;;
12658;SDS011;6394;52.488;13.386;2022-11-21T03:16:31;20.87;;;13.87;;
12658;SDS011;6394;52.488;13.386;2022-11-21T03:18:59;20.90;;;13.87;;
12658;SDS011;6394;52.488;13.386;2022-11-21T03:21:27;21.03;;;13.57;;
12658;SDS011;6394;52.488;13.386;2022-11-21T03:23:54;20.37;;;14.13;;
12658;SDS011;6394;52.488;13.386;2022-11-21T03:26:21;21.23;;;13.63;;
12658;SDS011;6394;52.488;13.386;2022-11-21T03:28:48;21.47;;;13.70;;
12658;SDS011;6394;52.488;13.386;2022-11-21T03:31:15;19.73;;;13.70;;
12658;SDS011;6394;52.488;13.386;2022-11-21T03:33:43;19.63;;;13.20;;
12658;SDS011;6394;52.488;13.386;2022-11-21T03:36:11;20.20;;;13.57;;
12658;SDS011;6394;52.488;13.386;2022-11-21T03:38:38;18.33;;;13.10;;
12658;SDS011;6394;52.488;13.386;2022-11-21T03:41:06;22.00;;;13.90;;
12658;SDS011;6394;52.488;13.386;2022-11-21T03:43:53;22.77;;;13.57;;
12658;SDS011;6394;52.488;13.386;2022-11-21T03:46:20;24.53;;;14.37;;
12658;SDS011;6394;52.488;13.386;2022-11-21T03:48:48;20.70;;;12.87;;
12658;SDS011;6394;52.488;13.386;2022-11-21T03:51:16;21.23;;;13.80;;
12658;SDS011;6394;52.488;13.386;2022-11-21T03:53:43;23.53;;;13.60;;
12658;SDS011;6394;52.488;13.386;2022-11-21T03:56:11;21.73;;;12.90;;
12658;SDS011;6394;52.488;13.386;2022-11-21T03:58:38;26.63;;;14.30;;
12658;SDS011;6394;52.488;13.386;2022-11-21T04:01:06;22.57;;;14.53;;
12658;SDS011;6394;52.488;13.386;2022-11-21T04:03:33;28.20;;;15.20;;
12658;SDS011;6394;52.488;13.386;2022-11-21T04:06:00;23.53;;;13.73;;
12658;SDS011;6394;52.488;13.386;2022-11-21T04:08:29;26.00;;;13.43;;
12658;SDS011;6394;52.488;13.386;2022-11-21T04:10:57;22.87;;;13.03;;
12658;SDS011;6394;52.488;13.386;2022-11-21T04:13:24;24.20;;;14.00;;
12658;SDS011;6394;52.488;13.386;2022-11-21T04:15:52;23.67;;;13.97;;
12658;SDS011;6394;52.488;13.386;2022-11-21T04:18:20;23.87;;;14.43;;
12658;SDS011;6394;52.488;13.386;2022-11-21T04:20:47;22.83;;;14.83;;
12658;SDS011;6394;52.488;13.386;2022-11-21T04:23:15;23.50;;;14.37;;
12658;SDS011;6394;52.488;13.386;2022-11-21T04:25:43;26.50;;;14.43;;
12658;SDS011;6394;52.488;13.386;2022-11-21T04:28:11;25.17;;;14.37;;
12658;SDS011;6394;52.488;13.386;2022-11-21T04:30:39;23.07;;;13.37;;
12658;SDS011;6394;52.488;13.386;2022-11-21T04:33:06;23.83;;;13.97;;
12658;SDS011;6394;52.488;13.386;2022-11-21T04:35:34;21.57;;;13.63;;
12658;SDS011;6394;52.488;13.386;2022-11-21T04:38:01;23.07;;;14.27;;
12658;SDS011;6394;52.488;13.386;2022-11-21T04:40:29;23.67;;;14.47;;
12658;SDS011;6394;52.488;13.386;2022-11-21T04:42:57;25.00;;;15.03;;
12658;SDS011;6394;52.488;13.386;2022-11-21T04:45:24;27.60;;;16.17;;
12658;SDS011;6394;52.488;13.386;2022-11-21T04:47:52;23.13;;;15.57;;
12658;SDS011;6394;52.488;13.386;2022-11-21T04:50:19;27.47;;;16.17;;
12658;SDS011;6394;52.488;13.386;2022-11-21T04:52:49;25.30;;;15.60;;
12658;SDS011;6394;52.488;13.386;2022-11-21T04:55:17;24.70;;;15.27;;
12658;SDS011;6394;52.488;13.386;2022-11-21T04:57:44;24.10;;;15.20;;
12658;SDS011;6394;52.488;13.386;2022-11-21T05:02:42;22.50;;;15.73;;
12658;SDS011;6394;52.488;13.386;2022-11-21T05:05:09;25.03;;;14.57;;
12658;SDS011;6394;52.488;13.386;2022-11-21T05:07:37;23.67;;;14.73;;
12658;SDS011;6394;52.488;13.386;2022-11-21T05:10:05;24.03;;;14.57;;
12658;SDS011;6394;52.488;13.386;2022-11-21T05:12:32;22.17;;;15.30;;
12658;SDS011;6394;52.488;13.386;2022-11-21T05:15:17;25.13;;;16.00;;
12658;SDS011;6394;52.488;13.386;2022-11-21T05:17:46;25.07;;;15.63;;
12658;SDS011;6394;52.488;13.386;2022-11-21T05:20:13;22.57;;;15.00;;
12658;SDS011;6394;52.488;13.386;2022-11-21T05:22:42;21.63;;;14.67;;
12658;SDS011;6394;52.488;13.386;2022-11-21T05:25:14;26.07;;;15.87;;
12658;SDS011;6394;52.488;13.386;2022-11-21T05:27:41;23.20;;;15.03;;
12658;SDS011;6394;52.488;13.386;2022-11-21T05:30:10;20.97;;;14.80;;
12658;SDS011;6394;52.488;13.386;2022-11-21T05:32:37;24.97;;;15.97;;
12658;SDS011;6394;52.488;13.386;2022-11-21T05:35:06;23.97;;;16.20;;
12658;SDS011;6394;52.488;13.386;2022-11-21T05:37:34;26.20;;;16.40;;
12658;SDS011;6394;52.488;13.386;2022-11-21T05:40:01;24.63;;;15.73;;
12658;SDS011;6394;52.488;13.386;2022-11-21T05:42:28;23.93;;;15.57;;
12658;SDS011;6394;52.488;13.386;2022-11-21T05:45:13;23.00;;;16.40;;
12658;SDS011;6394;52.488;13.386;2022-11-21T05:47:40;24.53;;;15.90;;
12658;SDS011;6394;52.488;13.386;2022-11-21T05:50:09;23.93;;;15.37;;
12658;SDS011;6394;52.488;13.386;2022-11-21T05:52:36;21.90;;;16.00;;
12658;SDS011;6394;52.488;13.386;2022-11-21T05:55:04;25.50;;;15.90;;
12658;SDS011;6394;52.488;13.386;2022-11-21T05:57:31;26.23;;;15.83;;
12658;SDS011;6394;52.488;13.386;2022-11-21T05:59:58;22.57;;;15.63;;
12658;SDS011;6394;52.488;13.386;2022-11-21T06:02:25;23.00;;;15.97;;
12658;SDS011;6394;52.488;13.386;2022-11-21T06:05:12;23.07;;;15.23;;
12658;SDS011;6394;52.488;13.386;2022-11-21T06:07:39;25.27;;;15.77;;
12658;SDS011;6394;52.488;13.386;2022-11-21T06:10:07;24.63;;;16.40;;
12658;SDS011;6394;52.488;13.386;2022-11-21T06:12:34;24.93;;;16.50;;
12658;SDS011;6394;52.488;13.386;2022-11-21T06:15:01;22.37;;;16.03;;
12658;SDS011;6394;52.488;13.386;2022-11-21T06:17:28;28.10;;;16.73;;
12658;SDS011;6394;52.488;13.386;2022-11-21T06:19:56;23.67;;;16.30;;
12658;SDS011;6394;52.488;13.386;2022-11-21T06:22:24;25.77;;;16.63;;
12658;SDS011;6394;52.488;13.386;2022-11-21T06:24:52;27.88;;;21.65;;
12658;SDS011;6394;52.488;13.386;2022-11-21T06:27:19;25.47;;;17.37;;
12658;SDS011;6394;52.488;13.386;2022-11-21T06:29:47;24.50;;;17.13;;
12658;SDS011;6394;52.488;13.386;2022-11-21T06:32:14;26.70;;;17.07;;
12658;SDS011;6394;52.488;13.386;2022-11-21T06:34:42;25.70;;;16.47;;
12658;SDS011;6394;52.488;13.386;2022-11-21T06:37:09;25.00;;;15.70;;
12658;SDS011;6394;52.488;13.386;2022-11-21T06:39:37;23.83;;;15.10;;
12658;SDS011;6394;52.488;13.386;2022-11-21T06:42:05;26.33;;;16.20;;
12658;SDS011;6394;52.488;13.386;2022-11-21T06:44:32;25.07;;;16.80;;
12658;SDS011;6394;52.488;13.386;2022-11-21T06:46:59;30.47;;;17.67;;
12658;SDS011;6394;52.488;13.386;2022-11-21T06:49:28;33.33;;;19.53;;
12658;SDS011;6394;52.488;13.386;2022-11-21T06:51:55;30.27;;;19.20;;
12658;SDS011;6394;52.488;13.386;2022-11-21T06:54:22;32.30;;;18.67;;
12658;SDS011;6394;52.488;13.386;2022-11-21T06:56:52;33.70;;;19.70;;
12658;SDS011;6394;52.488;13.386;2022-11-21T06:59:20;28.47;;;18.20;;
12658;SDS011;6394;52.488;13.386;2022-11-21T07:01:47;28.30;;;18.50;;
12658;SDS011;6394;52.488;13.386;2022-11-21T07:04:14;26.50;;;18.37;;
12658;SDS011;6394;52.488;13.386;2022-11-21T07:06:41;28.33;;;19.07;;
12658;SDS011;6394;52.488;13.386;2022-11-21T07:09:08;28.20;;;17.60;;
12658;SDS011;6394;52.488;13.386;2022-11-21T07:11:36;31.97;;;17.27;;
12658;SDS011;6394;52.488;13.386;2022-11-21T07:14:04;32.27;;;18.17;;
12658;SDS011;6394;52.488;13.386;2022-11-21T07:16:32;27.73;;;16.50;;
12658;SDS011;6394;52.488;13.386;2022-11-21T07:18:59;30.30;;;17.83;;
12658;SDS011;6394;52.488;13.386;2022-11-21T07:21:26;31.80;;;18.50;;
12658;SDS011;6394;52.488;13.386;2022-11-21T07:23:54;30.37;;;18.00;;
12658;SDS011;6394;52.488;13.386;2022-11-21T07:26:21;29.77;;;17.83;;
12658;SDS011;6394;52.488;13.386;2022-11-21T07:28:48;30.23;;;17.50;;
12658;SDS011;6394;52.488;13.386;2022-11-21T07:31:17;27.60;;;15.83;;
12658;SDS011;6394;52.488;13.386;2022-11-21T07:33:44;23.73;;;15.80;;
12658;SDS011;6394;52.488;13.386;2022-11-21T07:36:14;27.33;;;16.40;;
12658;SDS011;6394;52.488;13.386;2022-11-21T07:38:41;30.00;;;16.70;;
12658;SDS011;6394;52.488;13.386;2022-11-21T07:41:09;27.17;;;17.43;;
12658;SDS011;6394;52.488;13.386;2022-11-21T07:43:36;29.73;;;17.80;;
12658;SDS011;6394;52.488;13.386;2022-11-21T07:46:03;26.03;;;16.90;;
12658;SDS011;6394;52.488;13.386;2022-11-21T07:48:32;29.80;;;17.27;;
12658;SDS011;6394;52.488;13.386;2022-11-21T07:51:01;33.10;;;18.63;;
12658;SDS011;6394;52.488;13.386;2022-11-21T07:53:28;29.07;;;18.60;;
12658;SDS011;6394;52.488;13.386;2022-11-21T07:55:56;28.70;;;18.77;;
12658;SDS011;6394;52.488;13.386;2022-11-21T07:58:24;33.57;;;20.10;;
12658;SDS011;6394;52.488;13.386;2022-11-21T08:00:51;30.93;;;19.47;;
12658;SDS011;6394;52.488;13.386;2022-11-21T08:03:19;32.87;;;19.93;;
12658;SDS011;6394;52.488;13.386;2022-11-21T08:05:48;32.33;;;20.17;;
12658;SDS011;6394;52.488;13.386;2022-11-21T08:08:15;30.17;;;18.57;;
12658;SDS011;6394;52.488;13.386;2022-11-21T08:10:43;28.93;;;18.90;;
12658;SDS011;6394;52.488;13.386;2022-11-21T08:13:11;26.73;;;17.50;;
12658;SDS011;6394;52.488;13.386;2022-11-21T08:15:39;32.90;;;19.27;;
12658;SDS011;6394;52.488;13.386;2022-11-21T08:18:07;26.70;;;15.50;;
12658;SDS011;6394;52.488;13.386;2022-11-21T08:20:34;42.13;;;23.23;;
12658;SDS011;6394;52.488;13.386;2022-11-21T08:23:03;27.63;;;17.03;;
12658;SDS011;6394;52.488;13.386;2022-11-21T08:25:31;25.33;;;16.73;;
12658;SDS011;6394;52.488;13.386;2022-11-21T08:27:58;29.07;;;17.23;;
12658;SDS011;6394;52.488;13.386;2022-11-21T08:30:26;29.30;;;17.87;;
12658;SDS011;6394;52.488;13.386;2022-11-21T08:32:54;31.17;;;19.77;;
12658;SDS011;6394;52.488;13.386;2022-11-21T08:35:21;27.67;;;17.83;;
12658;SDS011;6394;52.488;13.386;2022-11-21T08:37:48;30.47;;;18.90;;
12658;SDS011;6394;52.488;13.386;2022-11-21T08:40:17;31.23;;;18.93;;
12658;SDS011;6394;52.488;13.386;2022-11-21T08:42:45;36.03;;;22.53;;
12658;SDS011;6394;52.488;13.386;2022-11-21T08:45:12;30.07;;;18.40;;
12658;SDS011;6394;52.488;13.386;2022-11-21T08:47:39;29.03;;;18.03;;
12658;SDS011;6394;52.488;13.386;2022-11-21T08:50:07;27.23;;;17.67;;
12658;SDS011;6394;52.488;13.386;2022-11-21T08:52:34;25.33;;;14.37;;
12658;SDS011;6394;52.488;13.386;2022-11-21T08:55:01;25.63;;;15.00;;
12658;SDS011;6394;52.488;13.386;2022-11-21T08:57:30;28.00;;;16.33;;
12658;SDS011;6394;52.488;13.386;2022-11-21T08:59:57;26.47;;;15.97;;
12658;SDS011;6394;52.488;13.386;2022-11-21T09:02:25;28.87;;;16.47;;
12658;SDS011;6394;52.488;13.386;2022-11-21T09:04:52;31.37;;;16.97;;
12658;SDS011;6394;52.488;13.386;2022-11-21T09:07:19;32.37;;;18.67;;
12658;SDS011;6394;52.488;13.386;2022-11-21T09:09:47;30.87;;;18.43;;
12658;SDS011;6394;52.488;13.386;2022-11-21T09:12:14;38.23;;;20.43;;
12658;SDS011;6394;52.488;13.386;2022-11-21T09:14:43;32.83;;;18.80;;
12658;SDS011;6394;52.488;13.386;2022-11-21T09:17:27;34.57;;;18.33;;
12658;SDS011;6394;52.488;13.386;2022-11-21T09:20:12;32.03;;;17.50;;
12658;SDS011;6394;52.488;13.386;2022-11-21T09:22:39;33.33;;;18.10;;
12658;SDS011;6394;52.488;13.386;2022-11-21T09:25:07;37.67;;;23.03;;
12658;SDS011;6394;52.488;13.386;2022-11-21T09:27:34;36.90;;;18.67;;
12658;SDS011;6394;52.488;13.386;2022-11-21T09:30:03;33.47;;;17.70;;
12658;SDS011;6394;52.488;13.386;2022-11-21T09:32:32;32.70;;;17.90;;
12658;SDS011;6394;52.488;13.386;2022-11-21T09:34:59;30.20;;;17.57;;
12658;SDS011;6394;52.488;13.386;2022-11-21T09:37:27;32.07;;;18.00;;
12658;SDS011;6394;52.488;13.386;2022-11-21T09:39:54;20.30;;;11.10;;
12658;SDS011;6394;52.488;13.386;2022-11-21T09:42:25;15.73;;;9.30;;
12658;SDS011;6394;52.488;13.386;2022-11-21T09:44:57;18.13;;;8.87;;
12658;SDS011;6394;52.488;13.386;2022-11-21T09:47:30;18.80;;;10.57;;
12658;SDS011;6394;52.488;13.386;2022-11-21T09:49:59;22.40;;;11.03;;
12658;SDS011;6394;52.488;13.386;2022-11-21T09:52:30;22.37;;;12.40;;
12658;SDS011;6394;52.488;13.386;2022-11-21T09:54:59;35.70;;;20.37;;
12658;SDS011;6394;52.488;13.386;2022-11-21T09:57:27;24.33;;;13.00;;
12658;SDS011;6394;52.488;13.386;2022-11-21T09:59:55;24.30;;;13.37;;
12658;SDS011;6394;52.488;13.386;2022-11-21T10:02:23;24.77;;;13.97;;
12658;SDS011;6394;52.488;13.386;2022-11-21T10:04:52;17.23;;;9.60;;
12658;SDS011;6394;52.488;13.386;2022-11-21T10:07:25;24.23;;;12.87;;
12658;SDS011;6394;52.488;13.386;2022-11-21T10:12:39;23.13;;;13.17;;
12658;SDS011;6394;52.488;13.386;2022-11-21T10:15:23;20.70;;;12.63;;
12658;SDS011;6394;52.488;13.386;2022-11-21T10:17:56;13.70;;;8.03;;
12658;SDS011;6394;52.488;13.386;2022-11-21T10:20:31;15.33;;;8.50;;
12658;SDS011;6394;52.488;13.386;2022-11-21T10:23:08;15.30;;;7.37;;
12658;SDS011;6394;52.488;13.386;2022-11-21T10:25:41;16.93;;;9.87;;
12658;SDS011;6394;52.488;13.386;2022-11-21T10:28:13;18.23;;;10.63;;
12658;SDS011;6394;52.488;13.386;2022-11-21T10:30:43;13.73;;;8.57;;
12658;SDS011;6394;52.488;13.386;2022-11-21T10:33:11;21.10;;;11.03;;
12658;SDS011;6394;52.488;13.386;2022-11-21T10:35:44;12.07;;;6.80;;
12658;SDS011;6394;52.488;13.386;2022-11-21T10:38:16;11.67;;;6.80;;
12658;SDS011;6394;52.488;13.386;2022-11-21T10:40:46;16.53;;;8.33;;
12658;SDS011;6394;52.488;13.386;2022-11-21T10:43:23;18.03;;;10.73;;
12658;SDS011;6394;52.488;13.386;2022-11-21T10:46:10;19.00;;;11.50;;
12658;SDS011;6394;52.488;13.386;2022-11-21T10:48:38;19.67;;;10.97;;
12658;SDS011;6394;52.488;13.386;2022-11-21T10:51:18;19.50;;;11.60;;
12658;SDS011;6394;52.488;13.386;2022-11-21T10:54:01;19.73;;;12.20;;
12658;SDS011;6394;52.488;13.386;2022-11-21T10:56:46;20.00;;;12.47;;
12658;SDS011;6394;52.488;13.386;2022-11-21T10:59:18;21.50;;;12.63;;
12658;SDS011;6394;52.488;13.386;2022-11-21T11:01:53;21.77;;;14.47;;
12658;SDS011;6394;52.488;13.386;2022-11-21T11:04:20;21.53;;;12.07;;
12658;SDS011;6394;52.488;13.386;2022-11-21T11:06:49;18.20;;;11.27;;
12658;SDS011;6394;52.488;13.386;2022-11-21T11:09:23;17.37;;;10.43;;
12658;SDS011;6394;52.488;13.386;2022-11-21T11:11:50;14.50;;;9.73;;
12658;SDS011;6394;52.488;13.386;2022-11-21T11:14:26;14.90;;;9.50;;
12658;SDS011;6394;52.488;13.386;2022-11-21T11:16:54;10.20;;;5.33;;
12658;SDS011;6394;52.488;13.386;2022-11-21T11:19:23;14.63;;;8.17;;
12658;SDS011;6394;52.488;13.386;2022-11-21T11:21:52;9.10;;;5.03;;
12658;SDS011;6394;52.488;13.386;2022-11-21T11:24:22;11.73;;;6.80;;
12658;SDS011;6394;52.488;13.386;2022-11-21T11:26:51;11.30;;;6.07;;
12658;SDS011;6394;52.488;13.386;2022-11-21T11:29:21;12.43;;;7.13;;
12658;SDS011;6394;52.488;13.386;2022-11-21T11:31:51;9.90;;;5.63;;
12658;SDS011;6394;52.488;13.386;2022-11-21T11:34:19;15.70;;;7.87;;
12658;SDS011;6394;52.488;13.386;2022-11-21T11:37:00;14.03;;;5.90;;
12658;SDS011;6394;52.488;13.386;2022-11-21T11:39:35;13.60;;;8.13;;
12658;SDS011;6394;52.488;13.386;2022-11-21T11:42:06;12.00;;;7.70;;
12658;SDS011;6394;52.488;13.386;2022-11-21T11:44:57;13.50;;;8.13;;
12658;SDS011;6394;52.488;13.386;2022-11-21T11:47:47;9.23;;;3.87;;
12658;SDS011;6394;52.488;13.386;2022-11-21T11:50:15;14.00;;;7.20;;
12658;SDS011;6394;52.488;13.386;2022-11-21T11:52:50;13.50;;;8.10;;
12658;SDS011;6394;52.488;13.386;2022-11-21T11:55:19;10.63;;;7.47;;
12658;SDS011;6394;52.488;13.386;2022-11-21T11:57:48;11.43;;;7.50;;
12658;SDS011;6394;52.488;13.386;2022-11-21T12:00:21;11.27;;;7.80;;
12658;SDS011;6394;52.488;13.386;2022-11-21T12:02:53;9.93;;;7.03;;
12658;SDS011;6394;52.488;13.386;2022-11-21T12:05:22;11.97;;;8.00;;
12658;SDS011;6394;52.488;13.386;2022-11-21T12:07:56;10.77;;;7.00;;
12658;SDS011;6394;52.488;13.386;2022-11-21T12:10:39;11.37;;;7.27;;
12658;SDS011;6394;52.488;13.386;2022-11-21T12:13:23;8.33;;;6.50;;
12658;SDS011;6394;52.488;13.386;2022-11-21T12:15:51;11.67;;;7.30;;
12658;SDS011;6394;52.488;13.386;2022-11-21T12:18:22;12.43;;;8.00;;
12658;SDS011;6394;52.488;13.386;2022-11-21T12:20:54;11.37;;;7.80;;
12658;SDS011;6394;52.488;13.386;2022-11-21T12:23:23;11.07;;;7.80;;
12658;SDS011;6394;52.488;13.386;2022-11-21T12:25:52;12.67;;;8.10;;
12658;SDS011;6394;52.488;13.386;2022-11-21T12:28:23;11.73;;;7.47;;
12658;SDS011;6394;52.488;13.386;2022-11-21T12:30:55;8.27;;;5.90;;
12658;SDS011;6394;52.488;13.386;2022-11-21T12:33:29;10.27;;;6.83;;
12658;SDS011;6394;52.488;13.386;2022-11-21T12:36:02;9.10;;;6.67;;
12658;SDS011;6394;52.488;13.386;2022-11-21T12:38:39;6.60;;;4.87;;
12658;SDS011;6394;52.488;13.386;2022-11-21T12:41:13;12.20;;;7.93;;
12658;SDS011;6394;52.488;13.386;2022-11-21T12:44:01;12.40;;;8.23;;
12658;SDS011;6394;52.488;13.386;2022-11-21T12:46:35;12.57;;;8.30;;
12658;SDS011;6394;52.488;13.386;2022-11-21T12:49:06;12.03;;;8.50;;
12658;SDS011;6394;52.488;13.386;2022-11-21T12:52:01;14.63;;;8.73;;
12658;SDS011;6394;52.488;13.386;2022-11-21T12:54:54;13.10;;;9.17;;
12658;SDS011;6394;52.488;13.386;2022-11-21T12:57:25;10.53;;;6.23;;
12658;SDS011;6394;52.488;13.386;2022-11-21T13:00:05;12.23;;;8.03;;
12658;SDS011;6394;52.488;13.386;2022-11-21T13:02:40;11.40;;;7.40;;
12658;SDS011;6394;52.488;13.386;2022-11-21T13:05:23;13.73;;;8.17;;
12658;SDS011;6394;52.488;13.386;2022-11-21T13:07:52;13.27;;;7.83;;
12658;SDS011;6394;52.488;13.386;2022-11-21T13:13:15;13.47;;;8.97;;
12658;SDS011;6394;52.488;13.386;2022-11-21T13:15:47;14.23;;;9.70;;
12658;SDS011;6394;52.488;13.386;2022-11-21T13:18:19;15.73;;;10.17;;
12658;SDS011;6394;52.488;13.386;2022-11-21T13:20:48;17.03;;;10.80;;
12658;SDS011;6394;52.488;13.386;2022-11-21T13:25:58;14.13;;;9.63;;
12658;SDS011;6394;52.488;13.386;2022-11-21T13:28:29;13.57;;;9.67;;
12658;SDS011;6394;52.488;13.386;2022-11-21T13:30:58;14.57;;;9.17;;
12658;SDS011;6394;52.488;13.386;2022-11-21T13:33:45;15.87;;;9.50;;
12658;SDS011;6394;52.488;13.386;2022-11-21T13:41:58;16.03;;;10.03;;
12658;SDS011;6394;52.488;13.386;2022-11-21T13:44:44;16.27;;;10.47;;
12658;SDS011;6394;52.488;13.386;2022-11-21T13:49:58;17.70;;;11.10;;
12658;SDS011;6394;52.488;13.386;2022-11-21T13:52:30;16.50;;;10.87;;
12658;SDS011;6394;52.488;13.386;2022-11-21T13:55:10;17.30;;;11.10;;
12658;SDS011;6394;52.488;13.386;2022-11-21T13:57:54;14.63;;;11.30;;
12658;SDS011;6394;52.488;13.386;2022-11-21T14:00:30;14.43;;;10.33;;
12658;SDS011;6394;52.488;13.386;2022-11-21T14:08:31;14.27;;;10.03;;
12658;SDS011;6394;52.488;13.386;2022-11-21T14:11:17;18.83;;;10.67;;
12658;SDS011;6394;52.488;13.386;2022-11-21T14:13:46;17.03;;;11.20;;
12658;SDS011;6394;52.488;13.386;2022-11-21T14:16:20;16.13;;;11.30;;
12658;SDS011;6394;52.488;13.386;2022-11-21T14:21:26;15.87;;;10.77;;
12658;SDS011;6394;52.488;13.386;2022-11-21T14:23:57;14.77;;;11.57;;
12658;SDS011;6394;52.488;13.386;2022-11-21T14:26:28;16.20;;;12.00;;
12658;SDS011;6394;52.488;13.386;2022-11-21T14:31:54;17.00;;;11.73;;
12658;SDS011;6394;52.488;13.386;2022-11-21T14:34:25;15.40;;;10.87;;
12658;SDS011;6394;52.488;13.386;2022-11-21T14:37:04;16.10;;;10.83;;
12658;SDS011;6394;52.488;13.386;2022-11-21T14:39:32;15.93;;;12.17;;
12658;SDS011;6394;52.488;13.386;2022-11-21T14:42:01;15.23;;;11.53;;
12658;SDS011;6394;52.488;13.386;2022-11-21T14:44:29;15.03;;;11.70;;
12658;SDS011;6394;52.488;13.386;2022-11-21T14:47:04;16.17;;;11.17;;
12658;SDS011;6394;52.488;13.386;2022-11-21T14:49:34;15.57;;;12.20;;
12658;SDS011;6394;52.488;13.386;2022-11-21T14:52:05;16.67;;;13.00;;
12658;SDS011;6394;52.488;13.386;2022-11-21T14:54:38;15.47;;;11.90;;
12658;SDS011;6394;52.488;13.386;2022-11-21T14:57:06;17.10;;;12.77;;
12658;SDS011;6394;52.488;13.386;2022-11-21T14:59:36;15.60;;;12.00;;
12658;SDS011;6394;52.488;13.386;2022-11-21T15:02:09;16.47;;;12.20;;
12658;SDS011;6394;52.488;13.386;2022-11-21T15:04:37;17.50;;;11.97;;
12658;SDS011;6394;52.488;13.386;2022-11-21T15:07:14;16.23;;;12.47;;
12658;SDS011;6394;52.488;13.386;2022-11-21T15:09:42;15.07;;;11.73;;